METAR Data
IDs: Format: Raw Decoded Include TAF

Data at: 1028 UTC 28 Sep 2021

LKCV 281000Z 32006KT 260V360 9999 FEW023 21/15 Q1021 NOSIG RMK BLU BLU